sensor_id;sensor_type;location;lat;lon;timestamp;P1;durP1;ratioP1;P2;durP2;ratioP2
15936;SDS011;9163;48.818;8.976;2024-01-11T00:00:13;61.13;;;35.83;;
15936;SDS011;9163;48.818;8.976;2024-01-11T00:02:40;63.57;;;36.17;;
15936;SDS011;9163;48.818;8.976;2024-01-11T00:05:08;72.17;;;37.13;;
15936;SDS011;9163;48.818;8.976;2024-01-11T00:07:39;68.90;;;36.43;;
15936;SDS011;9163;48.818;8.976;2024-01-11T00:10:06;60.70;;;34.57;;
15936;SDS011;9163;48.818;8.976;2024-01-11T00:12:34;67.73;;;35.67;;
15936;SDS011;9163;48.818;8.976;2024-01-11T00:15:01;65.43;;;35.23;;
15936;SDS011;9163;48.818;8.976;2024-01-11T00:17:30;67.40;;;34.23;;
15936;SDS011;9163;48.818;8.976;2024-01-11T00:19:57;60.97;;;35.53;;
15936;SDS011;9163;48.818;8.976;2024-01-11T00:22:25;63.73;;;35.43;;
15936;SDS011;9163;48.818;8.976;2024-01-11T00:24:52;61.13;;;33.00;;
15936;SDS011;9163;48.818;8.976;2024-01-11T00:27:20;63.80;;;33.37;;
15936;SDS011;9163;48.818;8.976;2024-01-11T00:29:47;63.03;;;34.07;;
15936;SDS011;9163;48.818;8.976;2024-01-11T00:32:14;66.87;;;35.63;;
15936;SDS011;9163;48.818;8.976;2024-01-11T00:34:43;70.30;;;37.30;;
15936;SDS011;9163;48.818;8.976;2024-01-11T00:37:10;80.43;;;40.23;;
15936;SDS011;9163;48.818;8.976;2024-01-11T00:39:37;76.57;;;40.40;;
15936;SDS011;9163;48.818;8.976;2024-01-11T00:42:05;97.47;;;47.07;;
15936;SDS011;9163;48.818;8.976;2024-01-11T00:44:32;85.67;;;43.43;;
15936;SDS011;9163;48.818;8.976;2024-01-11T00:46:59;74.57;;;37.93;;
15936;SDS011;9163;48.818;8.976;2024-01-11T00:49:27;61.63;;;34.50;;
15936;SDS011;9163;48.818;8.976;2024-01-11T00:51:55;64.23;;;34.53;;
15936;SDS011;9163;48.818;8.976;2024-01-11T00:54:23;74.50;;;37.40;;
15936;SDS011;9163;48.818;8.976;2024-01-11T00:56:50;85.20;;;41.00;;
15936;SDS011;9163;48.818;8.976;2024-01-11T00:59:17;79.83;;;39.00;;
15936;SDS011;9163;48.818;8.976;2024-01-11T01:01:46;83.97;;;40.67;;
15936;SDS011;9163;48.818;8.976;2024-01-11T01:04:14;80.10;;;39.53;;
15936;SDS011;9163;48.818;8.976;2024-01-11T01:06:41;72.40;;;35.80;;
15936;SDS011;9163;48.818;8.976;2024-01-11T01:09:10;67.13;;;35.20;;
15936;SDS011;9163;48.818;8.976;2024-01-11T01:11:39;69.23;;;36.73;;
15936;SDS011;9163;48.818;8.976;2024-01-11T01:14:06;73.50;;;37.70;;
15936;SDS011;9163;48.818;8.976;2024-01-11T01:16:33;58.57;;;33.20;;
15936;SDS011;9163;48.818;8.976;2024-01-11T01:19:01;65.90;;;33.87;;
15936;SDS011;9163;48.818;8.976;2024-01-11T01:21:28;60.97;;;32.83;;
15936;SDS011;9163;48.818;8.976;2024-01-11T01:23:55;65.03;;;34.13;;
15936;SDS011;9163;48.818;8.976;2024-01-11T01:26:24;58.80;;;32.60;;
15936;SDS011;9163;48.818;8.976;2024-01-11T01:28:51;62.07;;;33.80;;
15936;SDS011;9163;48.818;8.976;2024-01-11T01:31:18;65.67;;;33.87;;
15936;SDS011;9163;48.818;8.976;2024-01-11T01:33:46;64.03;;;33.80;;
15936;SDS011;9163;48.818;8.976;2024-01-11T01:36:13;64.90;;;35.67;;
15936;SDS011;9163;48.818;8.976;2024-01-11T01:38:40;65.70;;;36.23;;
15936;SDS011;9163;48.818;8.976;2024-01-11T01:41:08;64.17;;;34.13;;
15936;SDS011;9163;48.818;8.976;2024-01-11T01:43:36;65.47;;;34.83;;
15936;SDS011;9163;48.818;8.976;2024-01-11T01:46:04;64.13;;;33.50;;
15936;SDS011;9163;48.818;8.976;2024-01-11T01:48:33;65.73;;;34.60;;
15936;SDS011;9163;48.818;8.976;2024-01-11T01:51:00;63.67;;;33.40;;
15936;SDS011;9163;48.818;8.976;2024-01-11T01:53:28;69.43;;;35.60;;
15936;SDS011;9163;48.818;8.976;2024-01-11T01:55:56;64.53;;;32.43;;
15936;SDS011;9163;48.818;8.976;2024-01-11T01:58:24;66.47;;;34.33;;
15936;SDS011;9163;48.818;8.976;2024-01-11T02:00:53;61.77;;;33.13;;
15936;SDS011;9163;48.818;8.976;2024-01-11T02:03:20;60.80;;;33.03;;
15936;SDS011;9163;48.818;8.976;2024-01-11T02:05:48;63.93;;;32.83;;
15936;SDS011;9163;48.818;8.976;2024-01-11T02:08:16;69.33;;;35.27;;
15936;SDS011;9163;48.818;8.976;2024-01-11T02:10:46;63.83;;;33.97;;
15936;SDS011;9163;48.818;8.976;2024-01-11T02:13:14;61.33;;;33.47;;
15936;SDS011;9163;48.818;8.976;2024-01-11T02:15:43;68.53;;;34.97;;
15936;SDS011;9163;48.818;8.976;2024-01-11T02:18:12;65.57;;;33.90;;
15936;SDS011;9163;48.818;8.976;2024-01-11T02:20:40;68.40;;;34.00;;
15936;SDS011;9163;48.818;8.976;2024-01-11T02:23:09;67.67;;;35.23;;
15936;SDS011;9163;48.818;8.976;2024-01-11T02:25:42;68.73;;;35.97;;
15936;SDS011;9163;48.818;8.976;2024-01-11T02:28:09;65.73;;;33.83;;
15936;SDS011;9163;48.818;8.976;2024-01-11T02:30:37;68.20;;;34.83;;
15936;SDS011;9163;48.818;8.976;2024-01-11T02:33:05;63.43;;;34.80;;
15936;SDS011;9163;48.818;8.976;2024-01-11T02:35:32;67.23;;;34.10;;
15936;SDS011;9163;48.818;8.976;2024-01-11T02:38:03;62.70;;;33.47;;
15936;SDS011;9163;48.818;8.976;2024-01-11T02:40:30;63.07;;;34.17;;
15936;SDS011;9163;48.818;8.976;2024-01-11T02:43:01;61.30;;;34.53;;
15936;SDS011;9163;48.818;8.976;2024-01-11T02:45:34;65.80;;;34.23;;
15936;SDS011;9163;48.818;8.976;2024-01-11T02:48:01;65.43;;;34.80;;
15936;SDS011;9163;48.818;8.976;2024-01-11T02:50:28;68.53;;;34.83;;
15936;SDS011;9163;48.818;8.976;2024-01-11T02:52:55;64.67;;;34.13;;
15936;SDS011;9163;48.818;8.976;2024-01-11T02:55:22;63.30;;;33.47;;
15936;SDS011;9163;48.818;8.976;2024-01-11T02:57:49;62.07;;;33.07;;
15936;SDS011;9163;48.818;8.976;2024-01-11T03:00:18;66.33;;;33.27;;
15936;SDS011;9163;48.818;8.976;2024-01-11T03:02:46;63.57;;;33.97;;
15936;SDS011;9163;48.818;8.976;2024-01-11T03:05:13;62.70;;;34.77;;
15936;SDS011;9163;48.818;8.976;2024-01-11T03:07:40;67.97;;;36.20;;
15936;SDS011;9163;48.818;8.976;2024-01-11T03:10:08;63.67;;;35.07;;
15936;SDS011;9163;48.818;8.976;2024-01-11T03:12:36;64.77;;;35.03;;
15936;SDS011;9163;48.818;8.976;2024-01-11T03:15:03;64.10;;;33.60;;
15936;SDS011;9163;48.818;8.976;2024-01-11T03:17:32;69.33;;;36.60;;
15936;SDS011;9163;48.818;8.976;2024-01-11T03:20:00;66.63;;;37.77;;
15936;SDS011;9163;48.818;8.976;2024-01-11T03:22:29;66.63;;;36.73;;
15936;SDS011;9163;48.818;8.976;2024-01-11T03:24:56;72.53;;;38.97;;
15936;SDS011;9163;48.818;8.976;2024-01-11T03:27:23;68.20;;;37.97;;
15936;SDS011;9163;48.818;8.976;2024-01-11T03:29:51;67.53;;;36.27;;
15936;SDS011;9163;48.818;8.976;2024-01-11T03:32:18;63.67;;;36.50;;
15936;SDS011;9163;48.818;8.976;2024-01-11T03:34:46;67.63;;;36.00;;
15936;SDS011;9163;48.818;8.976;2024-01-11T03:37:14;69.40;;;37.10;;
15936;SDS011;9163;48.818;8.976;2024-01-11T03:39:42;63.40;;;36.50;;
15936;SDS011;9163;48.818;8.976;2024-01-11T03:42:09;62.23;;;36.30;;
15936;SDS011;9163;48.818;8.976;2024-01-11T03:44:36;72.33;;;37.97;;
15936;SDS011;9163;48.818;8.976;2024-01-11T03:47:04;66.23;;;35.77;;
15936;SDS011;9163;48.818;8.976;2024-01-11T03:49:32;65.30;;;37.80;;
15936;SDS011;9163;48.818;8.976;2024-01-11T03:52:00;63.00;;;34.83;;
15936;SDS011;9163;48.818;8.976;2024-01-11T03:54:27;74.00;;;39.30;;
15936;SDS011;9163;48.818;8.976;2024-01-11T03:56:55;70.77;;;37.53;;
15936;SDS011;9163;48.818;8.976;2024-01-11T03:59:22;76.03;;;39.63;;
15936;SDS011;9163;48.818;8.976;2024-01-11T04:01:49;75.23;;;38.20;;
15936;SDS011;9163;48.818;8.976;2024-01-11T04:04:18;70.90;;;37.17;;
15936;SDS011;9163;48.818;8.976;2024-01-11T04:06:45;71.03;;;37.30;;
15936;SDS011;9163;48.818;8.976;2024-01-11T04:09:14;68.97;;;35.63;;
15936;SDS011;9163;48.818;8.976;2024-01-11T04:11:41;75.17;;;39.37;;
15936;SDS011;9163;48.818;8.976;2024-01-11T04:14:08;78.37;;;39.53;;
15936;SDS011;9163;48.818;8.976;2024-01-11T04:16:39;78.17;;;38.80;;
15936;SDS011;9163;48.818;8.976;2024-01-11T04:19:07;73.80;;;39.43;;
15936;SDS011;9163;48.818;8.976;2024-01-11T04:21:34;71.70;;;36.93;;
15936;SDS011;9163;48.818;8.976;2024-01-11T04:24:04;66.63;;;36.10;;
15936;SDS011;9163;48.818;8.976;2024-01-11T04:26:33;73.67;;;37.07;;
15936;SDS011;9163;48.818;8.976;2024-01-11T04:29:01;72.13;;;37.80;;
15936;SDS011;9163;48.818;8.976;2024-01-11T04:31:28;70.80;;;38.17;;
15936;SDS011;9163;48.818;8.976;2024-01-11T04:33:56;68.90;;;37.00;;
15936;SDS011;9163;48.818;8.976;2024-01-11T04:36:24;75.77;;;39.17;;
15936;SDS011;9163;48.818;8.976;2024-01-11T04:38:51;76.40;;;40.50;;
15936;SDS011;9163;48.818;8.976;2024-01-11T04:41:18;77.90;;;39.83;;
15936;SDS011;9163;48.818;8.976;2024-01-11T04:43:47;78.73;;;39.83;;
15936;SDS011;9163;48.818;8.976;2024-01-11T04:46:15;75.37;;;36.17;;
15936;SDS011;9163;48.818;8.976;2024-01-11T04:48:43;72.47;;;37.27;;
15936;SDS011;9163;48.818;8.976;2024-01-11T04:51:11;75.33;;;39.30;;
15936;SDS011;9163;48.818;8.976;2024-01-11T04:53:40;81.03;;;39.50;;
15936;SDS011;9163;48.818;8.976;2024-01-11T04:56:08;77.40;;;38.27;;
15936;SDS011;9163;48.818;8.976;2024-01-11T04:58:36;73.93;;;39.13;;
15936;SDS011;9163;48.818;8.976;2024-01-11T05:01:10;77.20;;;38.27;;
15936;SDS011;9163;48.818;8.976;2024-01-11T05:03:40;79.20;;;40.80;;
15936;SDS011;9163;48.818;8.976;2024-01-11T05:06:08;83.10;;;44.73;;
15936;SDS011;9163;48.818;8.976;2024-01-11T05:08:35;94.70;;;48.03;;
15936;SDS011;9163;48.818;8.976;2024-01-11T05:11:03;85.77;;;47.27;;
15936;SDS011;9163;48.818;8.976;2024-01-11T05:13:30;90.73;;;48.90;;
15936;SDS011;9163;48.818;8.976;2024-01-11T05:15:57;92.00;;;49.23;;
15936;SDS011;9163;48.818;8.976;2024-01-11T05:18:26;86.10;;;47.80;;
15936;SDS011;9163;48.818;8.976;2024-01-11T05:20:53;82.60;;;45.23;;
15936;SDS011;9163;48.818;8.976;2024-01-11T05:23:20;82.80;;;46.70;;
15936;SDS011;9163;48.818;8.976;2024-01-11T05:25:47;79.07;;;44.50;;
15936;SDS011;9163;48.818;8.976;2024-01-11T05:28:15;77.93;;;43.93;;
15936;SDS011;9163;48.818;8.976;2024-01-11T05:30:42;76.60;;;39.50;;
15936;SDS011;9163;48.818;8.976;2024-01-11T05:33:09;76.40;;;41.50;;
15936;SDS011;9163;48.818;8.976;2024-01-11T05:35:38;78.33;;;42.97;;
15936;SDS011;9163;48.818;8.976;2024-01-11T05:38:05;79.93;;;40.07;;
15936;SDS011;9163;48.818;8.976;2024-01-11T05:40:32;76.70;;;39.00;;
15936;SDS011;9163;48.818;8.976;2024-01-11T05:42:59;76.67;;;39.50;;
15936;SDS011;9163;48.818;8.976;2024-01-11T05:45:26;81.53;;;40.90;;
15936;SDS011;9163;48.818;8.976;2024-01-11T05:47:54;84.33;;;42.97;;
15936;SDS011;9163;48.818;8.976;2024-01-11T05:50:21;92.43;;;42.20;;
15936;SDS011;9163;48.818;8.976;2024-01-11T05:52:49;82.10;;;40.63;;
15936;SDS011;9163;48.818;8.976;2024-01-11T05:55:19;93.33;;;43.10;;
15936;SDS011;9163;48.818;8.976;2024-01-11T05:57:46;93.80;;;43.63;;
15936;SDS011;9163;48.818;8.976;2024-01-11T06:00:14;88.90;;;41.17;;
15936;SDS011;9163;48.818;8.976;2024-01-11T06:02:42;78.90;;;40.70;;
15936;SDS011;9163;48.818;8.976;2024-01-11T06:05:09;76.20;;;38.77;;
15936;SDS011;9163;48.818;8.976;2024-01-11T06:07:37;71.47;;;36.90;;
15936;SDS011;9163;48.818;8.976;2024-01-11T06:10:06;78.70;;;39.53;;
15936;SDS011;9163;48.818;8.976;2024-01-11T06:12:34;75.10;;;38.90;;
15936;SDS011;9163;48.818;8.976;2024-01-11T06:15:02;81.90;;;40.00;;
15936;SDS011;9163;48.818;8.976;2024-01-11T06:17:29;82.93;;;40.20;;
15936;SDS011;9163;48.818;8.976;2024-01-11T06:19:56;83.40;;;41.20;;
15936;SDS011;9163;48.818;8.976;2024-01-11T06:22:23;83.27;;;41.20;;
15936;SDS011;9163;48.818;8.976;2024-01-11T06:24:51;88.20;;;44.03;;
15936;SDS011;9163;48.818;8.976;2024-01-11T06:27:19;106.20;;;52.00;;
15936;SDS011;9163;48.818;8.976;2024-01-11T06:29:46;101.13;;;50.40;;
15936;SDS011;9163;48.818;8.976;2024-01-11T06:32:14;98.13;;;48.47;;
15936;SDS011;9163;48.818;8.976;2024-01-11T06:34:41;90.67;;;46.27;;
15936;SDS011;9163;48.818;8.976;2024-01-11T06:37:11;88.63;;;44.00;;
15936;SDS011;9163;48.818;8.976;2024-01-11T06:39:38;84.50;;;41.33;;
15936;SDS011;9163;48.818;8.976;2024-01-11T06:42:05;95.53;;;45.47;;
15936;SDS011;9163;48.818;8.976;2024-01-11T06:44:34;88.53;;;45.73;;
15936;SDS011;9163;48.818;8.976;2024-01-11T06:47:01;82.43;;;43.00;;
15936;SDS011;9163;48.818;8.976;2024-01-11T06:49:31;84.27;;;42.20;;
15936;SDS011;9163;48.818;8.976;2024-01-11T06:51:58;80.77;;;42.10;;
15936;SDS011;9163;48.818;8.976;2024-01-11T06:54:25;77.87;;;40.00;;
15936;SDS011;9163;48.818;8.976;2024-01-11T06:56:52;78.83;;;40.57;;
15936;SDS011;9163;48.818;8.976;2024-01-11T06:59:20;79.10;;;40.63;;
15936;SDS011;9163;48.818;8.976;2024-01-11T07:01:49;93.73;;;47.43;;
15936;SDS011;9163;48.818;8.976;2024-01-11T07:04:16;87.23;;;43.87;;
15936;SDS011;9163;48.818;8.976;2024-01-11T07:06:44;81.47;;;44.30;;
15936;SDS011;9163;48.818;8.976;2024-01-11T07:09:11;81.87;;;45.17;;
15936;SDS011;9163;48.818;8.976;2024-01-11T07:11:38;82.77;;;42.70;;
15936;SDS011;9163;48.818;8.976;2024-01-11T07:14:06;87.00;;;45.93;;
15936;SDS011;9163;48.818;8.976;2024-01-11T07:16:33;82.03;;;44.60;;
15936;SDS011;9163;48.818;8.976;2024-01-11T07:19:02;78.20;;;42.90;;
15936;SDS011;9163;48.818;8.976;2024-01-11T07:21:29;76.10;;;42.83;;
15936;SDS011;9163;48.818;8.976;2024-01-11T07:23:57;81.80;;;42.60;;
15936;SDS011;9163;48.818;8.976;2024-01-11T07:26:24;78.97;;;42.53;;
15936;SDS011;9163;48.818;8.976;2024-01-11T07:28:52;85.23;;;45.60;;
15936;SDS011;9163;48.818;8.976;2024-01-11T07:31:21;80.37;;;44.17;;
15936;SDS011;9163;48.818;8.976;2024-01-11T07:33:48;82.37;;;44.67;;
15936;SDS011;9163;48.818;8.976;2024-01-11T07:36:17;79.30;;;39.23;;
15936;SDS011;9163;48.818;8.976;2024-01-11T07:38:44;69.60;;;37.90;;
15936;SDS011;9163;48.818;8.976;2024-01-11T07:41:11;68.10;;;36.53;;
15936;SDS011;9163;48.818;8.976;2024-01-11T07:43:41;72.20;;;35.33;;
15936;SDS011;9163;48.818;8.976;2024-01-11T07:46:08;62.40;;;34.47;;
15936;SDS011;9163;48.818;8.976;2024-01-11T07:48:36;63.50;;;33.57;;
15936;SDS011;9163;48.818;8.976;2024-01-11T07:51:03;60.70;;;33.43;;
15936;SDS011;9163;48.818;8.976;2024-01-11T07:53:32;57.87;;;31.33;;
15936;SDS011;9163;48.818;8.976;2024-01-11T07:55:59;60.63;;;31.17;;
15936;SDS011;9163;48.818;8.976;2024-01-11T07:58:27;59.77;;;30.23;;
15936;SDS011;9163;48.818;8.976;2024-01-11T08:00:54;53.47;;;27.67;;
15936;SDS011;9163;48.818;8.976;2024-01-11T08:03:21;54.57;;;31.03;;
15936;SDS011;9163;48.818;8.976;2024-01-11T08:05:48;64.33;;;34.57;;
15936;SDS011;9163;48.818;8.976;2024-01-11T08:08:16;76.80;;;44.13;;
15936;SDS011;9163;48.818;8.976;2024-01-11T08:10:45;80.83;;;47.50;;
15936;SDS011;9163;48.818;8.976;2024-01-11T08:13:12;59.87;;;35.47;;
15936;SDS011;9163;48.818;8.976;2024-01-11T08:15:39;62.40;;;38.57;;
15936;SDS011;9163;48.818;8.976;2024-01-11T08:18:07;48.80;;;28.53;;
15936;SDS011;9163;48.818;8.976;2024-01-11T08:20:34;46.27;;;28.27;;
15936;SDS011;9163;48.818;8.976;2024-01-11T08:23:02;49.90;;;28.70;;
15936;SDS011;9163;48.818;8.976;2024-01-11T08:25:29;43.43;;;26.80;;
15936;SDS011;9163;48.818;8.976;2024-01-11T08:27:58;46.83;;;27.90;;
15936;SDS011;9163;48.818;8.976;2024-01-11T08:30:25;42.27;;;26.37;;
15936;SDS011;9163;48.818;8.976;2024-01-11T08:32:53;42.27;;;25.93;;
15936;SDS011;9163;48.818;8.976;2024-01-11T08:35:21;41.30;;;27.13;;
15936;SDS011;9163;48.818;8.976;2024-01-11T08:37:48;41.90;;;25.87;;
15936;SDS011;9163;48.818;8.976;2024-01-11T08:40:15;39.33;;;26.03;;
15936;SDS011;9163;48.818;8.976;2024-01-11T08:42:43;37.57;;;25.67;;
15936;SDS011;9163;48.818;8.976;2024-01-11T08:45:11;38.30;;;26.23;;
15936;SDS011;9163;48.818;8.976;2024-01-11T08:47:43;37.37;;;25.37;;
15936;SDS011;9163;48.818;8.976;2024-01-11T08:50:12;37.40;;;25.97;;
15936;SDS011;9163;48.818;8.976;2024-01-11T08:52:39;33.83;;;24.40;;
15936;SDS011;9163;48.818;8.976;2024-01-11T08:55:07;36.90;;;26.13;;
15936;SDS011;9163;48.818;8.976;2024-01-11T08:57:35;33.40;;;24.57;;
15936;SDS011;9163;48.818;8.976;2024-01-11T09:00:06;34.23;;;24.73;;
15936;SDS011;9163;48.818;8.976;2024-01-11T09:02:43;36.07;;;25.00;;
15936;SDS011;9163;48.818;8.976;2024-01-11T09:05:11;33.53;;;25.10;;
15936;SDS011;9163;48.818;8.976;2024-01-11T09:07:41;33.03;;;24.80;;
15936;SDS011;9163;48.818;8.976;2024-01-11T09:10:09;34.87;;;25.50;;
15936;SDS011;9163;48.818;8.976;2024-01-11T09:12:37;30.80;;;24.77;;
15936;SDS011;9163;48.818;8.976;2024-01-11T09:15:06;32.20;;;25.33;;
15936;SDS011;9163;48.818;8.976;2024-01-11T09:17:35;35.57;;;25.80;;
15936;SDS011;9163;48.818;8.976;2024-01-11T09:20:07;30.57;;;24.13;;
15936;SDS011;9163;48.818;8.976;2024-01-11T09:22:39;33.93;;;25.87;;
15936;SDS011;9163;48.818;8.976;2024-01-11T09:25:07;34.40;;;26.77;;
15936;SDS011;9163;48.818;8.976;2024-01-11T09:27:35;34.83;;;25.80;;
15936;SDS011;9163;48.818;8.976;2024-01-11T09:30:03;36.07;;;25.53;;
15936;SDS011;9163;48.818;8.976;2024-01-11T09:32:31;36.33;;;27.80;;
15936;SDS011;9163;48.818;8.976;2024-01-11T09:34:58;36.83;;;28.77;;
15936;SDS011;9163;48.818;8.976;2024-01-11T09:37:29;38.47;;;29.60;;
15936;SDS011;9163;48.818;8.976;2024-01-11T09:39:56;33.47;;;24.77;;
15936;SDS011;9163;48.818;8.976;2024-01-11T09:42:25;37.13;;;30.20;;
15936;SDS011;9163;48.818;8.976;2024-01-11T09:44:52;36.13;;;28.60;;
15936;SDS011;9163;48.818;8.976;2024-01-11T09:47:21;37.83;;;31.70;;
15936;SDS011;9163;48.818;8.976;2024-01-11T09:49:49;50.43;;;42.17;;
15936;SDS011;9163;48.818;8.976;2024-01-11T09:52:19;39.13;;;33.27;;
15936;SDS011;9163;48.818;8.976;2024-01-11T09:54:48;100.33;;;85.47;;
15936;SDS011;9163;48.818;8.976;2024-01-11T09:57:16;44.17;;;35.67;;
15936;SDS011;9163;48.818;8.976;2024-01-11T09:59:50;113.23;;;85.83;;
15936;SDS011;9163;48.818;8.976;2024-01-11T10:02:22;208.47;;;161.27;;
15936;SDS011;9163;48.818;8.976;2024-01-11T10:04:50;49.50;;;39.60;;
15936;SDS011;9163;48.818;8.976;2024-01-11T10:07:18;77.70;;;61.30;;
15936;SDS011;9163;48.818;8.976;2024-01-11T10:09:50;53.53;;;43.83;;
15936;SDS011;9163;48.818;8.976;2024-01-11T10:12:19;39.17;;;33.73;;
15936;SDS011;9163;48.818;8.976;2024-01-11T10:14:50;36.17;;;29.93;;
15936;SDS011;9163;48.818;8.976;2024-01-11T10:17:17;30.37;;;25.40;;
15936;SDS011;9163;48.818;8.976;2024-01-11T10:19:45;30.47;;;26.27;;
15936;SDS011;9163;48.818;8.976;2024-01-11T10:22:12;29.83;;;25.80;;
15936;SDS011;9163;48.818;8.976;2024-01-11T10:24:42;31.10;;;26.77;;
15936;SDS011;9163;48.818;8.976;2024-01-11T10:27:11;29.20;;;25.70;;
15936;SDS011;9163;48.818;8.976;2024-01-11T10:29:38;30.30;;;25.67;;
15936;SDS011;9163;48.818;8.976;2024-01-11T10:32:06;31.03;;;26.33;;
15936;SDS011;9163;48.818;8.976;2024-01-11T10:34:33;32.47;;;26.23;;
15936;SDS011;9163;48.818;8.976;2024-01-11T10:37:02;33.63;;;27.73;;
15936;SDS011;9163;48.818;8.976;2024-01-11T10:39:31;31.03;;;26.50;;
15936;SDS011;9163;48.818;8.976;2024-01-11T10:42:04;31.63;;;26.47;;
15936;SDS011;9163;48.818;8.976;2024-01-11T10:44:34;32.80;;;27.60;;
15936;SDS011;9163;48.818;8.976;2024-01-11T10:47:03;31.00;;;27.50;;
15936;SDS011;9163;48.818;8.976;2024-01-11T10:49:34;30.33;;;26.65;;
15936;SDS011;9163;48.818;8.976;2024-01-11T10:52:06;30.90;;;27.48;;
15936;SDS011;9163;48.818;8.976;2024-01-11T10:54:34;31.70;;;27.20;;
15936;SDS011;9163;48.818;8.976;2024-01-11T10:57:03;29.58;;;26.10;;
15936;SDS011;9163;48.818;8.976;2024-01-11T10:59:34;30.00;;;26.90;;
15936;SDS011;9163;48.818;8.976;2024-01-11T11:02:04;30.02;;;26.40;;
15936;SDS011;9163;48.818;8.976;2024-01-11T11:04:36;29.58;;;26.42;;
15936;SDS011;9163;48.818;8.976;2024-01-11T11:07:04;29.83;;;26.63;;
15936;SDS011;9163;48.818;8.976;2024-01-11T11:09:34;29.35;;;26.08;;
15936;SDS011;9163;48.818;8.976;2024-01-11T11:12:01;29.52;;;26.30;;
15936;SDS011;9163;48.818;8.976;2024-01-11T11:14:30;29.85;;;26.75;;
15936;SDS011;9163;48.818;8.976;2024-01-11T11:17:02;29.55;;;26.45;;
15936;SDS011;9163;48.818;8.976;2024-01-11T11:19:30;31.05;;;27.85;;
15936;SDS011;9163;48.818;8.976;2024-01-11T11:21:58;30.38;;;27.08;;
15936;SDS011;9163;48.818;8.976;2024-01-11T11:24:25;28.83;;;25.38;;
15936;SDS011;9163;48.818;8.976;2024-01-11T11:26:52;31.00;;;27.63;;
15936;SDS011;9163;48.818;8.976;2024-01-11T11:29:22;29.67;;;26.50;;
15936;SDS011;9163;48.818;8.976;2024-01-11T11:31:50;29.38;;;26.40;;
15936;SDS011;9163;48.818;8.976;2024-01-11T11:34:20;30.48;;;27.00;;
15936;SDS011;9163;48.818;8.976;2024-01-11T11:37:06;29.33;;;26.30;;
15936;SDS011;9163;48.818;8.976;2024-01-11T11:39:34;29.30;;;26.33;;
15936;SDS011;9163;48.818;8.976;2024-01-11T11:42:01;29.80;;;26.58;;
15936;SDS011;9163;48.818;8.976;2024-01-11T11:44:30;29.23;;;26.13;;
15936;SDS011;9163;48.818;8.976;2024-01-11T11:50:04;29.58;;;26.58;;
15936;SDS011;9163;48.818;8.976;2024-01-11T11:52:33;30.50;;;27.38;;
15936;SDS011;9163;48.818;8.976;2024-01-11T11:55:01;29.95;;;26.92;;
15936;SDS011;9163;48.818;8.976;2024-01-11T11:57:29;27.98;;;25.08;;
15936;SDS011;9163;48.818;8.976;2024-01-11T11:59:56;30.38;;;26.98;;
15936;SDS011;9163;48.818;8.976;2024-01-11T12:02:24;28.58;;;25.48;;
15936;SDS011;9163;48.818;8.976;2024-01-11T12:04:53;56.72;;;49.95;;
15936;SDS011;9163;48.818;8.976;2024-01-11T12:07:22;30.23;;;27.13;;
15936;SDS011;9163;48.818;8.976;2024-01-11T12:09:50;30.50;;;27.20;;
15936;SDS011;9163;48.818;8.976;2024-01-11T12:12:18;31.38;;;27.98;;
15936;SDS011;9163;48.818;8.976;2024-01-11T12:14:46;29.55;;;26.48;;
15936;SDS011;9163;48.818;8.976;2024-01-11T12:17:14;29.35;;;26.23;;
15936;SDS011;9163;48.818;8.976;2024-01-11T12:19:41;29.85;;;26.83;;
15936;SDS011;9163;48.818;8.976;2024-01-11T12:22:09;30.98;;;27.73;;
15936;SDS011;9163;48.818;8.976;2024-01-11T12:24:37;30.42;;;27.33;;
15936;SDS011;9163;48.818;8.976;2024-01-11T12:27:04;32.33;;;28.92;;
15936;SDS011;9163;48.818;8.976;2024-01-11T12:29:32;31.00;;;27.90;;
15936;SDS011;9163;48.818;8.976;2024-01-11T12:31:59;31.02;;;27.83;;
15936;SDS011;9163;48.818;8.976;2024-01-11T12:34:27;31.33;;;28.13;;
15936;SDS011;9163;48.818;8.976;2024-01-11T12:36:55;31.30;;;28.08;;
15936;SDS011;9163;48.818;8.976;2024-01-11T12:39:26;32.10;;;28.55;;
15936;SDS011;9163;48.818;8.976;2024-01-11T12:41:55;32.17;;;28.73;;
15936;SDS011;9163;48.818;8.976;2024-01-11T12:44:23;31.85;;;28.55;;
15936;SDS011;9163;48.818;8.976;2024-01-11T12:46:51;35.72;;;32.17;;
15936;SDS011;9163;48.818;8.976;2024-01-11T12:49:18;29.83;;;26.65;;
15936;SDS011;9163;48.818;8.976;2024-01-11T12:51:46;31.60;;;28.23;;
15936;SDS011;9163;48.818;8.976;2024-01-11T12:54:16;31.77;;;28.35;;
15936;SDS011;9163;48.818;8.976;2024-01-11T12:56:44;32.42;;;28.45;;
15936;SDS011;9163;48.818;8.976;2024-01-11T12:59:13;30.35;;;27.15;;
15936;SDS011;9163;48.818;8.976;2024-01-11T13:01:41;30.80;;;27.42;;
15936;SDS011;9163;48.818;8.976;2024-01-11T13:04:09;31.67;;;28.38;;
15936;SDS011;9163;48.818;8.976;2024-01-11T13:06:37;32.00;;;28.45;;
15936;SDS011;9163;48.818;8.976;2024-01-11T13:09:04;31.27;;;27.88;;
15936;SDS011;9163;48.818;8.976;2024-01-11T13:11:33;32.03;;;28.58;;
15936;SDS011;9163;48.818;8.976;2024-01-11T13:14:00;31.13;;;27.45;;
15936;SDS011;9163;48.818;8.976;2024-01-11T13:16:33;34.95;;;31.25;;
15936;SDS011;9163;48.818;8.976;2024-01-11T13:19:00;31.00;;;27.90;;
15936;SDS011;9163;48.818;8.976;2024-01-11T13:21:27;30.92;;;27.58;;
15936;SDS011;9163;48.818;8.976;2024-01-11T13:23:55;31.33;;;27.00;;
15936;SDS011;9163;48.818;8.976;2024-01-11T13:26:23;29.88;;;26.48;;
15936;SDS011;9163;48.818;8.976;2024-01-11T13:28:50;30.20;;;26.92;;
15936;SDS011;9163;48.818;8.976;2024-01-11T13:31:18;31.08;;;27.52;;
15936;SDS011;9163;48.818;8.976;2024-01-11T13:33:47;33.10;;;27.80;;
15936;SDS011;9163;48.818;8.976;2024-01-11T13:36:14;31.63;;;27.20;;
15936;SDS011;9163;48.818;8.976;2024-01-11T13:38:42;32.17;;;28.60;;
15936;SDS011;9163;48.818;8.976;2024-01-11T13:41:09;32.25;;;27.55;;
15936;SDS011;9163;48.818;8.976;2024-01-11T13:43:36;33.60;;;28.38;;
15936;SDS011;9163;48.818;8.976;2024-01-11T13:46:03;32.25;;;28.48;;
15936;SDS011;9163;48.818;8.976;2024-01-11T13:48:31;33.92;;;28.60;;
15936;SDS011;9163;48.818;8.976;2024-01-11T13:50:59;32.35;;;28.25;;
15936;SDS011;9163;48.818;8.976;2024-01-11T13:53:28;33.78;;;29.08;;
15936;SDS011;9163;48.818;8.976;2024-01-11T13:55:56;33.50;;;28.55;;
15936;SDS011;9163;48.818;8.976;2024-01-11T13:58:23;32.63;;;28.58;;
15936;SDS011;9163;48.818;8.976;2024-01-11T14:00:50;33.03;;;27.65;;
15936;SDS011;9163;48.818;8.976;2024-01-11T14:03:18;33.55;;;27.90;;
15936;SDS011;9163;48.818;8.976;2024-01-11T14:05:45;32.63;;;28.27;;
15936;SDS011;9163;48.818;8.976;2024-01-11T14:08:14;32.17;;;27.60;;
15936;SDS011;9163;48.818;8.976;2024-01-11T14:10:41;31.25;;;27.92;;
15936;SDS011;9163;48.818;8.976;2024-01-11T14:13:09;31.98;;;28.38;;
15936;SDS011;9163;48.818;8.976;2024-01-11T14:15:36;32.90;;;28.60;;
15936;SDS011;9163;48.818;8.976;2024-01-11T14:18:05;34.47;;;28.58;;
15936;SDS011;9163;48.818;8.976;2024-01-11T14:20:33;33.33;;;27.25;;
15936;SDS011;9163;48.818;8.976;2024-01-11T14:23:00;35.35;;;28.60;;
15936;SDS011;9163;48.818;8.976;2024-01-11T14:25:29;33.92;;;29.08;;
15936;SDS011;9163;48.818;8.976;2024-01-11T14:27:56;35.17;;;29.60;;
15936;SDS011;9163;48.818;8.976;2024-01-11T14:30:24;33.53;;;28.37;;
15936;SDS011;9163;48.818;8.976;2024-01-11T14:32:51;36.03;;;29.03;;
15936;SDS011;9163;48.818;8.976;2024-01-11T14:35:19;34.97;;;29.47;;
15936;SDS011;9163;48.818;8.976;2024-01-11T14:37:46;36.10;;;28.87;;
15936;SDS011;9163;48.818;8.976;2024-01-11T14:40:14;35.53;;;28.90;;